Timeline UpdatesTrip UpdatesNews PostsPvt PostsTravel TipsAdmin PostsConv PostsFollowed PostsChat RequestsBlog PostsPNR Posts

Disclaimer
Search
 
 
Thu Apr 24, 2014 09:29:31 ISTHomeTrainsΣChainsAtlasPNRForumGalleryNewsFAQTripsMembersLoginFeedback
No Recent News for this Train
Other Trains in the News **new
Latest...
.
Thu Nov 14, 2013 (06:37PM)
⇐ Return Journey: Train# 19019

19020/Dehradun - Mumbai Bandra Terminus Express

Apr 15 (1:35PM)
Change Departure Station:
Change Arrival Station:
Post a Train Travel TipPost a Train Travel Tip **new
Post a Comment/Question/Picture/VideoPost a Comment/Question/Picture/Video
Pantry/Catering
✕ NO Pantry Car
✓ Catering Avbl
Loco/Rake Reversals
SRE/Saharanpur Junction (6); LRJ/Laksar Junction (4);
RSA - Rake Sharing
Rake/Coach Composition
LOCO-SLR-HCPV-GEN-GEN-AB1-S1-S2-S3-S4-S5-S6-S7-S8-S9-SLR
Loco
GZB WAP-7 NZM-BDTS. ddn to nzm tkd wdp 3a. By Er...
Read more...
Ankit Shotra Bhagat Entry# 595554
News    PNR    Forum    Time-Table    Availability    Fare Chart    Map    Arr/Dep History    Trips    Gallery    ΣChains    X/O    Timeline    
Travel Time: 4h 52m    6 halts    Distance: 233 km    Avg Speed: 47 km/hr
Type: Mail/Express
Zone: WR/Western
Departs @ 22:38 (Avg 3m late)
Platform# 2
SMTWTFS
Surat/ST 
Arrives @ 03:30 +1 night (Avg 3m late)
Platform# 5
SMTWTFS
Mumbai Borivali/BVI 

6 halts. 40 intermediate Stations between Surat and Mumbai Borivali

Show ALL intermediate Stations  Show Old Time-Table

#CodeStation NameX/OArrivesAvgDepartsAvgHaltPFDay#KmSpeedElevZoneAddress
1DDNDehradun (4)  -10:35+021-1429.941648mNRDehradun, Uttarakhand
2DWODoiwala  11:04+511:06+52m--1-1410.139484mNRDehradun, Uttarakhand
3RWLRaiwala Junction (2)X  11:38+211:40+152m21-1389.420361mNRRishikesh, Uttarakhand
4MOTCMotichur (2)X  12:00+712:02+82m11-1382.821312mNRHaridwar, Uttarakhand
5HWHaridwar Junction (9)X  12:15+812:45+930m31-1378.230294mNRHaridwar, Uttarakhand
6JWPJwalapurX  12:53+1112:55+122m--1-1374.321292mNRHaridwar, Uttarakhand
7LRJLaksar Junction (4)X14:00+414:25+525m--1-1351.359238mNRLaksar, Uttarakhand
8RKRoorkee (3)X  14:43+814:45+102m31-1333.542264mNRRoorkee - 247667, Uttarakhand
9SRESaharanpur Junction (6)X15:35+516:05+130m41-1298.846276mNRSaharanpur, Uttar Pradesh
10DBDDeoband (2)X  16:50+416:52+72m21-1264.651258mNRSaharanpur, Uttar Pradesh
11MOZMuzaffarnagar (3)X  17:20+517:22+192m21-1240.667247mNRMuzaffarNagar, Uttar Pradesh
12KATKhatauli (2)  17:42+2117:44+242m11-1218.473239mNRKhatauli, Uttar Pradesh
13MUTMeerut Cantt. (2)  18:08+2918:10+292m11-1189.310230mNRMeerut, Uttar Pradesh
14MTCMeerut City Junction (6)X18:35+1419:20+845m41-1185.083229mNRMeerut, Uttar Pradesh
15MDNRModinagar (2)X  19:34+1419:36+142m21-1165.567221mNRGhaziabad, Uttar Pradesh
16MUDMuradnagar (2)  19:45+1519:47+152m21-1155.447220mNRGhaziabad, Uttar Pradesh
17GZNNew Ghaziabad (2)X  20:02-20:04-2m21-1143.714213mNRGhaziabad, Uttar Pradesh
18GZBGhaziabad Junction (6)X  20:30+420:32+62m41-1137.845217mNRGhaziabad, Uttar Pradesh
19SBBSahibabad Junction (5)X  20:41+1120:43+112m--1-1131.130209mNRGhaziabad, Uttar Pradesh
20NZMDelhi Hazrat Nizamuddin (7)XO21:15+1521:55+1040m11-1115.025209mNRNizamuddin East/Sarai KaleKhan Bus Terminal, Delhi NCT
21TKDTuglakabad (4)XO  22:18+1122:20+132m--1-1105.328213mNRNear Tughlakabad Metro Station, Delhi NCT
22FDBFaridabad (4)  22:44+922:46+92m31-1094.240206mNRFaridabad, Haryana
23BVHBallabgarh (5)O  22:58+923:00+102m--1-1086.235203mNRFaridabad, Haryana
24PWLPalwal (8)X  23:36+223:38+42m--1-1065.085200mNRPalwal, Haryana
25KSVKosi Kalan (3)XO  00:08+1700:10+182m22-1022.529189mNCRKosi Kalan, Uttar Pradesh
26MTJMathura Junction (10)X  01:35-101:45+010m32-981.180179mNCRMathura, Uttar Pradesh
27BTEBharatpur Junction (5)  02:10+602:15+65m--2-947.684174mWCRBharatpur, Rajasthan
28BXNBayana Junction (3)XO  02:45+802:47+102m--2-905.674198mWCRBayana, Rajasthan
29FSPFateh SinghpuraO  03:03+1203:05+142m--2-885.979223mWCRState Highway 1, Rajasthan
30HANHindaun City (2)  03:15+1703:17+202m--2-872.768230mWCRKarauli, Rajasthan
31SMBJShri Mahabirji (3)O  03:26+2003:28+202m--2-862.549240mWCRKarauli, Rajasthan
32GGCGangapur City (3)  04:10+704:20+910m--2-828.464270mWCRGangapur, Rajasthan
33NNWNarayanpur Tatwara (2)X  04:36+1104:38+132m--2-811.584256mWCRSawai Madhopur, Rajasthan
34MLZMalarnaX  04:50+1204:52+122m--2-794.765236mWCRSawai Madhopur, Rajasthan
35SWMSawai Madhopur Junction (4)XO  05:20+905:25+105m--2-764.595266mWCRSawai Madhopur, Rajasthan
36IDGIndargarh Sumerganj Mandi (2)X  05:48+1605:50+182m--2-728.382247mWCRIndargarh, Rajasthan
37LKELakheri (3)  05:58+2006:00+202m--2-717.374228mWCRBundi, Rajasthan
38KPTNKeshorai PatanX  06:38+2406:40+252m--2-670.260243mWCRSH 33, Rajasthan
39GQLGurla  06:48+2706:50+292m--2-662.28251mWCRSH 33, Rajasthan
40KOTAKota Junction (5)X07:30+707:50+1220m22-656.851256mWCRKota, Rajasthan
41DKNTDakaniya Talav (2)  08:01+1708:03+192m22-647.585278mWCRKota, Rajasthan
42DARADaraX  08:30+2208:32+242m--2-609.355354mWCRDara, Rajasthan
43MKXMorak (2)X  08:48+2408:50+242m--2-594.642337mWCRMorak, Rajasthan
44RMARamganj Mandi Junction (3)X  09:03+2209:05+252m--2-585.557358mWCRRamganj Mandi, Rajasthan
45JHWJhalawar Road (3)  09:18+2309:20+242m--2-573.255361mWCRJhalawar City, Rajasthan
46BWMBhawani Mandi (3)X  09:38+2009:40+252m--2-556.776384mWCRBhawani Mandi, Madhya Pradesh
47GOHGaroth (2)  09:58+2510:00+262m12-534.026441mWCRMadhya Pradesh 458880, Madhya Pradesh
48SGZShamgarh (3)X  10:25+1410:30+185m--2-523.267463mWCRMandsaur, Madhya Pradesh
49SVASuwasra (2)  10:42+1910:44+192m--2-509.866450mWCRSuwasra, Madhya Pradesh
50CMUChau Mahla (3)X  10:58+1911:00+212m12-494.435426mWCRJhalawar, Rajasthan
51THURThuriaX  11:24+1111:26+142m--2-480.221430mWCRMDR 45, Madhya Pradesh
52VMAVikramgarh Alot (2)  11:48+511:50+102m12-472.661443mWCRKota Division, Madhya Pradesh
53LNRLuni Richha  12:03+912:05+92m--2-459.328471mWCRAlote, Madhya Pradesh
54MEPMahidpur Road  12:28+012:30+42m--2-448.729493mWCRGogapur, Madhya Pradesh
55NADNagda Junction (4)  13:05+213:15+610m--2-431.675468mWRNagda, Madhya Pradesh
56KUHKhachrod (2)  13:26+913:28+92m--2-417.857497mWRUjjain, Madhya Pradesh
57RNHRunkheraX  13:39+813:41+72m--2-407.463478mWRUjjain, Madhya Pradesh
58BODBangrodX  13:48+813:50+82m--2-400.024484mWRRatlam, Madhya Pradesh
59RTMRatlam Junction (7)X  14:15-114:35+220m42-390.277495mWRRatlam, Madhya Pradesh
60RTIRaoti (2)  14:56+914:58+82m--2-363.371409mWRState Highway 39A, Madhya Pradesh
61BOGBhairongarh (2)  15:08+1015:10+92m--2-351.451374mWRBhairongarh Railway Station, Madhya Pradesh
62BMIBamnia (2)  15:17+1015:19+102m--2-345.442392mWRBamnia, Madhya Pradesh
63AGRAmargarh (2)  15:25+1015:27+92m--2-341.357410mWRSH 39A, Madhya Pradesh
64PCNPanch Pipila (2)  15:37+915:39+92m--2-331.884369mWRSH 39A, Madhya Pradesh
65THDRThandla Road (2)  15:49+1115:51+112m--2-317.960317mWRJhabua, Madhya Pradesh
66MGNMeghnagar (3)  15:59+1116:01+132m--2-309.973317mWRJhabua, Madhya Pradesh
67ANASAnas (2)  16:13+1616:15+152m--2-295.379288mWRMadhya Pradesh 389154 ?, Madhya Pradesh
68BIOBordi (2)  16:21+1616:23+162m--2-287.453289mWRNational Highway 59, Gujarat
69DHDDahod (3)  16:35+1916:40+205m--2-276.876313mWRDahod, Gujarat
70LMKLimkheda  17:06+2317:08+222m--2-243.868205mWRLimkheda, Gujarat
71PPDPiplod Junction  17:15+2217:17+222m--2-235.979209mWRPiplod, Gujarat
72SATSant Road (2)X  17:26+2317:28+222m22-224.120169mWROrwara, Gujarat
73GDAGodhra Junction (3)X  18:30+018:35+35m102-203.765122mWRGodhra, Gujarat
74KRSAKharsaliya (2)  18:45+718:47+62m--2-192.885107mWRPanchmahal, Gujarat
75DRLDerolX  18:56+718:58+72m12-180.16881mWRKalol, Gujarat
76CPNChampaner Road JunctionX  19:09+619:11+62m--2-167.67578mWRPanchmahal, Gujarat
77SMLASamlaya Junction (3)X  19:20+619:22+72m--2-156.44867mWRVadodara, Gujarat
78BRCVadodara Junction (7)  19:55+1320:05+1310m32-129.88936mWRVadodara, Gujarat
79MYGMiyagam Karjan (2)  20:25+2020:27+192m--2-100.07229mWRKarjan, Gujarat
80BHBharuch Junction (5)  21:01+2221:03+222m42-59.36219mWRBharuch, Gujarat
81AKVAnkleshwar Junction (4)X  21:12+2421:14+242m22-49.97419mWRAnkleshwar, Gujarat
82KSBKosamba Junction (3)X21:29+1621:31+202m--2-31.43230mWRKosamba, Gujarat
83ST»Surat (4)»X  22:30+322:38+38m220.07119mWRSurat 395001, Gujarat
84NVSNavsari (3)  23:03+923:05+102m--229.67914mWRNavsari, Gujarat
85BIMBilimora Junction (4)X  23:21+1723:23+172m--250.83611mWRBilimora, Gujarat
86BLValsad (3)  23:53+1223:55+192m3268.73815mWRValsad, Gujarat
87VAPIVapi (3)X  00:36+600:38+92m--394.95727mWRVapi, Gujarat
88PLGPalghar (3)  02:04+1302:06+142m--3176.43719mWRPalghar, Maharashtra
89VRVirar (8)  02:56+502:58+72m--3207.6486mWRThane, Maharashtra
90BVI•Mumbai Borivali (8)•  03:30+303:32+62m53233.42319mWRMumbai - 400092, Maharashtra
91BDTSMumbai Bandra Terminus (5)  04:20-3-13252.2-4mWRMumbai 400050, Maharashtra
Scroll to Top
Scroll to Bottom